sensor_id;sensor_type;location;lat;lon;timestamp;pressure;altitude;pressure_sealevel;temperature;humidity
77235;BME280;66253;50.526;14.974;2023-07-08T00:01:37;99607.89;;;16.86;57.82
77235;BME280;66253;50.526;14.974;2023-07-08T00:04:06;99608.73;;;16.84;57.84
77235;BME280;66253;50.526;14.974;2023-07-08T00:06:34;99606.66;;;16.82;57.97
77235;BME280;66253;50.526;14.974;2023-07-08T00:09:04;99613.27;;;16.79;57.97
77235;BME280;66253;50.526;14.974;2023-07-08T00:11:35;99612.97;;;16.79;57.94
77235;BME280;66253;50.526;14.974;2023-07-08T00:14:03;99608.64;;;16.79;58.05
77235;BME280;66253;50.526;14.974;2023-07-08T00:16:31;99611.04;;;16.79;58.09
77235;BME280;66253;50.526;14.974;2023-07-08T00:19:00;99609.20;;;16.78;58.07
77235;BME280;66253;50.526;14.974;2023-07-08T00:21:28;99604.98;;;16.72;58.10
77235;BME280;66253;50.526;14.974;2023-07-08T00:23:56;99610.58;;;16.66;58.03
77235;BME280;66253;50.526;14.974;2023-07-08T00:26:26;99615.23;;;16.64;58.17
77235;BME280;66253;50.526;14.974;2023-07-08T00:28:55;99619.35;;;16.59;58.14
77235;BME280;66253;50.526;14.974;2023-07-08T00:31:24;99623.02;;;16.59;58.41
77235;BME280;66253;50.526;14.974;2023-07-08T00:33:54;99623.58;;;16.58;58.31
77235;BME280;66253;50.526;14.974;2023-07-08T00:36:21;99620.95;;;16.57;58.59
77235;BME280;66253;50.526;14.974;2023-07-08T00:38:50;99621.90;;;16.58;58.39
77235;BME280;66253;50.526;14.974;2023-07-08T00:41:22;99624.56;;;16.57;58.66
77235;BME280;66253;50.526;14.974;2023-07-08T00:43:53;99621.88;;;16.56;58.67
77235;BME280;66253;50.526;14.974;2023-07-08T00:46:33;99621.73;;;16.53;58.77
77235;BME280;66253;50.526;14.974;2023-07-08T00:49:15;99625.30;;;16.49;58.58
77235;BME280;66253;50.526;14.974;2023-07-08T00:51:45;99625.89;;;16.48;58.66
77235;BME280;66253;50.526;14.974;2023-07-08T00:54:14;99627.96;;;16.46;58.74
77235;BME280;66253;50.526;14.974;2023-07-08T00:56:42;99629.84;;;16.44;58.85
77235;BME280;66253;50.526;14.974;2023-07-08T00:59:14;99631.24;;;16.41;58.96
77235;BME280;66253;50.526;14.974;2023-07-08T01:01:46;99638.09;;;16.39;58.96
77235;BME280;66253;50.526;14.974;2023-07-08T01:04:17;99634.16;;;16.36;59.09
77235;BME280;66253;50.526;14.974;2023-07-08T01:06:49;99632.78;;;16.36;58.95
77235;BME280;66253;50.526;14.974;2023-07-08T01:09:18;99634.40;;;16.35;58.88
77235;BME280;66253;50.526;14.974;2023-07-08T01:11:47;99631.30;;;16.36;59.26
77235;BME280;66253;50.526;14.974;2023-07-08T01:14:18;99628.92;;;16.33;59.34
77235;BME280;66253;50.526;14.974;2023-07-08T01:16:48;99624.08;;;16.31;59.15
77235;BME280;66253;50.526;14.974;2023-07-08T01:19:19;99620.46;;;16.26;59.21
77235;BME280;66253;50.526;14.974;2023-07-08T01:21:59;99616.23;;;16.22;59.35
77235;BME280;66253;50.526;14.974;2023-07-08T01:24:28;99618.56;;;16.21;59.24
77235;BME280;66253;50.526;14.974;2023-07-08T01:26:58;99617.13;;;16.19;59.31
77235;BME280;66253;50.526;14.974;2023-07-08T01:29:28;99615.06;;;16.14;59.59
77235;BME280;66253;50.526;14.974;2023-07-08T01:31:57;99614.63;;;16.11;59.51
77235;BME280;66253;50.526;14.974;2023-07-08T01:34:24;99611.98;;;16.10;59.36
77235;BME280;66253;50.526;14.974;2023-07-08T01:36:54;99611.56;;;16.08;59.47
77235;BME280;66253;50.526;14.974;2023-07-08T01:39:25;99606.72;;;16.04;59.80
77235;BME280;66253;50.526;14.974;2023-07-08T01:41:55;99602.20;;;16.00;59.94
77235;BME280;66253;50.526;14.974;2023-07-08T01:44:26;99596.36;;;15.95;59.78
77235;BME280;66253;50.526;14.974;2023-07-08T01:46:56;99599.09;;;15.93;60.01
77235;BME280;66253;50.526;14.974;2023-07-08T01:49:26;99600.38;;;15.89;59.77
77235;BME280;66253;50.526;14.974;2023-07-08T01:51:54;99601.06;;;15.84;59.90
77235;BME280;66253;50.526;14.974;2023-07-08T01:54:23;99607.08;;;15.82;59.88
77235;BME280;66253;50.526;14.974;2023-07-08T01:56:57;99609.69;;;15.79;59.75
77235;BME280;66253;50.526;14.974;2023-07-08T01:59:25;99612.67;;;15.76;60.01
77235;BME280;66253;50.526;14.974;2023-07-08T02:01:54;99607.52;;;15.73;59.80
77235;BME280;66253;50.526;14.974;2023-07-08T02:04:23;99606.20;;;15.70;59.91
77235;BME280;66253;50.526;14.974;2023-07-08T02:06:54;99603.40;;;15.66;60.07
77235;BME280;66253;50.526;14.974;2023-07-08T02:09:23;99600.20;;;15.64;59.97
77235;BME280;66253;50.526;14.974;2023-07-08T02:11:51;99600.82;;;15.63;59.79
77235;BME280;66253;50.526;14.974;2023-07-08T02:14:19;99599.13;;;15.60;60.06
77235;BME280;66253;50.526;14.974;2023-07-08T02:16:48;99600.79;;;15.56;60.05
77235;BME280;66253;50.526;14.974;2023-07-08T02:19:16;99599.59;;;15.54;60.38
77235;BME280;66253;50.526;14.974;2023-07-08T02:21:44;99601.30;;;15.51;60.13
77235;BME280;66253;50.526;14.974;2023-07-08T02:24:12;99601.33;;;15.51;60.18
77235;BME280;66253;50.526;14.974;2023-07-08T02:26:41;99597.78;;;15.47;60.66
77235;BME280;66253;50.526;14.974;2023-07-08T02:29:09;99596.19;;;15.43;60.55
77235;BME280;66253;50.526;14.974;2023-07-08T02:31:37;99595.38;;;15.38;60.68
77235;BME280;66253;50.526;14.974;2023-07-08T02:34:06;99593.33;;;15.33;60.72
77235;BME280;66253;50.526;14.974;2023-07-08T02:36:34;99592.88;;;15.32;60.58
77235;BME280;66253;50.526;14.974;2023-07-08T02:39:03;99589.04;;;15.30;60.70
77235;BME280;66253;50.526;14.974;2023-07-08T02:41:31;99592.42;;;15.28;60.57
77235;BME280;66253;50.526;14.974;2023-07-08T02:43:59;99592.21;;;15.26;60.80
77235;BME280;66253;50.526;14.974;2023-07-08T02:46:28;99590.51;;;15.23;61.20
77235;BME280;66253;50.526;14.974;2023-07-08T02:48:56;99588.80;;;15.23;61.08
77235;BME280;66253;50.526;14.974;2023-07-08T02:51:24;99585.73;;;15.22;61.05
77235;BME280;66253;50.526;14.974;2023-07-08T02:53:53;99584.36;;;15.22;61.21
77235;BME280;66253;50.526;14.974;2023-07-08T02:56:22;99587.33;;;15.22;61.34
77235;BME280;66253;50.526;14.974;2023-07-08T02:58:50;99587.11;;;15.20;61.27
77235;BME280;66253;50.526;14.974;2023-07-08T03:01:18;99586.11;;;15.20;60.99
77235;BME280;66253;50.526;14.974;2023-07-08T03:03:47;99587.45;;;15.20;61.09
77235;BME280;66253;50.526;14.974;2023-07-08T03:06:15;99585.83;;;15.21;60.94
77235;BME280;66253;50.526;14.974;2023-07-08T03:08:44;99585.39;;;15.22;61.04
77235;BME280;66253;50.526;14.974;2023-07-08T03:11:13;99581.89;;;15.23;60.82
77235;BME280;66253;50.526;14.974;2023-07-08T03:13:41;99578.98;;;15.26;61.41
77235;BME280;66253;50.526;14.974;2023-07-08T03:16:09;99576.11;;;15.27;61.41
77235;BME280;66253;50.526;14.974;2023-07-08T03:18:38;99574.67;;;15.26;61.33
77235;BME280;66253;50.526;14.974;2023-07-08T03:21:07;99579.66;;;15.26;61.30
77235;BME280;66253;50.526;14.974;2023-07-08T03:23:35;99582.70;;;15.27;61.21
77235;BME280;66253;50.526;14.974;2023-07-08T03:26:03;99587.48;;;15.27;61.23
77235;BME280;66253;50.526;14.974;2023-07-08T03:28:32;99590.55;;;15.27;61.37
77235;BME280;66253;50.526;14.974;2023-07-08T03:31:00;99591.48;;;15.29;61.48
77235;BME280;66253;50.526;14.974;2023-07-08T03:33:28;99596.45;;;15.30;61.52
77235;BME280;66253;50.526;14.974;2023-07-08T03:35:56;99594.54;;;15.27;61.71
77235;BME280;66253;50.526;14.974;2023-07-08T03:38:25;99595.48;;;15.26;61.76
77235;BME280;66253;50.526;14.974;2023-07-08T03:40:53;99594.61;;;15.29;62.01
77235;BME280;66253;50.526;14.974;2023-07-08T03:43:21;99592.16;;;15.30;61.98
77235;BME280;66253;50.526;14.974;2023-07-08T03:45:50;99598.04;;;15.32;61.53
77235;BME280;66253;50.526;14.974;2023-07-08T03:48:18;99601.02;;;15.34;61.55
77235;BME280;66253;50.526;14.974;2023-07-08T03:50:46;99603.98;;;15.35;61.68
77235;BME280;66253;50.526;14.974;2023-07-08T03:53:14;99606.72;;;15.38;61.71
77235;BME280;66253;50.526;14.974;2023-07-08T03:55:43;99600.40;;;15.40;61.40
77235;BME280;66253;50.526;14.974;2023-07-08T03:58:11;99604.89;;;15.42;61.60
77235;BME280;66253;50.526;14.974;2023-07-08T04:00:39;99605.27;;;15.44;61.86
77235;BME280;66253;50.526;14.974;2023-07-08T04:03:10;99606.20;;;15.45;61.50
77235;BME280;66253;50.526;14.974;2023-07-08T04:05:38;99605.19;;;15.47;61.62
77235;BME280;66253;50.526;14.974;2023-07-08T04:08:07;99611.58;;;15.49;61.76
77235;BME280;66253;50.526;14.974;2023-07-08T04:10:35;99612.28;;;15.52;62.06
77235;BME280;66253;50.526;14.974;2023-07-08T04:13:03;99610.14;;;15.58;62.05
77235;BME280;66253;50.526;14.974;2023-07-08T04:15:31;99610.80;;;15.71;62.02
77235;BME280;66253;50.526;14.974;2023-07-08T04:18:00;99605.58;;;15.89;61.84
77235;BME280;66253;50.526;14.974;2023-07-08T04:20:28;99606.80;;;16.10;61.23
77235;BME280;66253;50.526;14.974;2023-07-08T04:22:56;99609.96;;;16.26;61.00
77235;BME280;66253;50.526;14.974;2023-07-08T04:25:24;99607.36;;;16.38;60.77
77235;BME280;66253;50.526;14.974;2023-07-08T04:27:53;99607.95;;;16.46;60.61
77235;BME280;66253;50.526;14.974;2023-07-08T04:30:24;99612.58;;;16.49;60.32
77235;BME280;66253;50.526;14.974;2023-07-08T04:32:53;99612.17;;;16.54;60.11
77235;BME280;66253;50.526;14.974;2023-07-08T04:35:22;99617.14;;;16.61;59.99
77235;BME280;66253;50.526;14.974;2023-07-08T04:37:50;99613.73;;;16.70;60.15
77235;BME280;66253;50.526;14.974;2023-07-08T04:40:21;99619.70;;;16.81;59.92
77235;BME280;66253;50.526;14.974;2023-07-08T04:42:49;99621.85;;;16.91;59.69
77235;BME280;66253;50.526;14.974;2023-07-08T04:45:18;99619.14;;;17.04;59.47
77235;BME280;66253;50.526;14.974;2023-07-08T04:47:46;99618.85;;;17.19;59.25
77235;BME280;66253;50.526;14.974;2023-07-08T04:50:15;99616.47;;;17.34;58.82
77235;BME280;66253;50.526;14.974;2023-07-08T04:52:43;99617.35;;;17.49;58.65
77235;BME280;66253;50.526;14.974;2023-07-08T04:55:12;99613.35;;;17.66;58.44
77235;BME280;66253;50.526;14.974;2023-07-08T04:57:40;99607.81;;;17.79;58.29
77235;BME280;66253;50.526;14.974;2023-07-08T05:00:14;99602.59;;;17.92;57.97
77235;BME280;66253;50.526;14.974;2023-07-08T05:02:43;99601.92;;;18.07;57.87
77235;BME280;66253;50.526;14.974;2023-07-08T05:05:11;99608.27;;;18.24;57.52
77235;BME280;66253;50.526;14.974;2023-07-08T05:07:39;99609.84;;;18.43;57.36
77235;BME280;66253;50.526;14.974;2023-07-08T05:10:09;99609.34;;;18.62;57.14
77235;BME280;66253;50.526;14.974;2023-07-08T05:12:35;99606.64;;;18.82;56.64
77235;BME280;66253;50.526;14.974;2023-07-08T05:15:05;99613.29;;;19.02;56.39
77235;BME280;66253;50.526;14.974;2023-07-08T05:17:33;99612.69;;;19.21;56.35
77235;BME280;66253;50.526;14.974;2023-07-08T05:20:02;99613.93;;;19.41;56.14
77235;BME280;66253;50.526;14.974;2023-07-08T05:22:31;99617.99;;;19.58;55.51
77235;BME280;66253;50.526;14.974;2023-07-08T05:24:59;99625.20;;;19.75;55.32
77235;BME280;66253;50.526;14.974;2023-07-08T05:27:28;99627.80;;;19.93;55.13
77235;BME280;66253;50.526;14.974;2023-07-08T05:29:56;99628.66;;;20.11;54.53
77235;BME280;66253;50.526;14.974;2023-07-08T05:32:24;99624.89;;;20.27;54.10
77235;BME280;66253;50.526;14.974;2023-07-08T05:34:53;99625.78;;;20.46;53.30
77235;BME280;66253;50.526;14.974;2023-07-08T05:37:22;99623.80;;;20.66;52.83
77235;BME280;66253;50.526;14.974;2023-07-08T05:39:50;99622.48;;;20.85;52.15
77235;BME280;66253;50.526;14.974;2023-07-08T05:42:19;99621.98;;;21.03;52.13
77235;BME280;66253;50.526;14.974;2023-07-08T05:44:47;99620.14;;;21.21;51.92
77235;BME280;66253;50.526;14.974;2023-07-08T05:47:16;99620.84;;;21.36;51.31
77235;BME280;66253;50.526;14.974;2023-07-08T05:49:44;99618.80;;;21.48;51.37
77235;BME280;66253;50.526;14.974;2023-07-08T05:52:12;99618.94;;;21.63;50.87
77235;BME280;66253;50.526;14.974;2023-07-08T05:54:41;99619.77;;;21.77;50.43
77235;BME280;66253;50.526;14.974;2023-07-08T05:57:11;99616.41;;;21.91;50.14
77235;BME280;66253;50.526;14.974;2023-07-08T05:59:39;99617.99;;;22.07;49.92
77235;BME280;66253;50.526;14.974;2023-07-08T06:02:10;99622.16;;;22.23;50.08
77235;BME280;66253;50.526;14.974;2023-07-08T06:04:39;99625.89;;;22.41;49.48
77235;BME280;66253;50.526;14.974;2023-07-08T06:07:07;99624.82;;;22.55;48.40
77235;BME280;66253;50.526;14.974;2023-07-08T06:09:34;99625.94;;;22.70;48.08
77235;BME280;66253;50.526;14.974;2023-07-08T06:12:03;99630.27;;;22.83;48.18
77235;BME280;66253;50.526;14.974;2023-07-08T06:14:32;99630.99;;;22.98;47.55
77235;BME280;66253;50.526;14.974;2023-07-08T06:17:00;99631.73;;;23.11;47.09
77235;BME280;66253;50.526;14.974;2023-07-08T06:19:29;99635.08;;;23.26;46.73
77235;BME280;66253;50.526;14.974;2023-07-08T06:21:57;99632.00;;;23.41;46.33
77235;BME280;66253;50.526;14.974;2023-07-08T06:24:25;99633.48;;;23.54;45.61
77235;BME280;66253;50.526;14.974;2023-07-08T06:26:53;99635.10;;;23.67;45.18
77235;BME280;66253;50.526;14.974;2023-07-08T06:29:22;99631.02;;;23.78;44.75
77235;BME280;66253;50.526;14.974;2023-07-08T06:31:50;99630.88;;;23.89;44.73
77235;BME280;66253;50.526;14.974;2023-07-08T06:34:19;99632.07;;;24.02;44.44
77235;BME280;66253;50.526;14.974;2023-07-08T06:36:47;99633.54;;;24.10;43.45
77235;BME280;66253;50.526;14.974;2023-07-08T06:39:15;99633.59;;;24.19;43.51
77235;BME280;66253;50.526;14.974;2023-07-08T06:41:44;99629.27;;;24.32;43.72
77235;BME280;66253;50.526;14.974;2023-07-08T06:44:12;99623.02;;;24.45;43.83
77235;BME280;66253;50.526;14.974;2023-07-08T06:46:40;99621.21;;;24.58;43.12
77235;BME280;66253;50.526;14.974;2023-07-08T06:49:08;99620.21;;;24.71;42.79
77235;BME280;66253;50.526;14.974;2023-07-08T06:51:37;99622.37;;;24.85;43.07
77235;BME280;66253;50.526;14.974;2023-07-08T06:54:05;99617.05;;;24.98;42.73
77235;BME280;66253;50.526;14.974;2023-07-08T06:56:33;99616.97;;;25.08;42.30
77235;BME280;66253;50.526;14.974;2023-07-08T06:59:02;99614.80;;;25.17;42.09
77235;BME280;66253;50.526;14.974;2023-07-08T07:01:30;99619.80;;;25.27;41.61
77235;BME280;66253;50.526;14.974;2023-07-08T07:03:58;99615.44;;;25.35;41.11
77235;BME280;66253;50.526;14.974;2023-07-08T07:06:26;99612.64;;;25.44;41.19
77235;BME280;66253;50.526;14.974;2023-07-08T07:08:55;99611.58;;;25.58;40.76
77235;BME280;66253;50.526;14.974;2023-07-08T07:11:23;99613.02;;;25.67;39.19
77235;BME280;66253;50.526;14.974;2023-07-08T07:13:51;99603.31;;;25.70;39.53
77235;BME280;66253;50.526;14.974;2023-07-08T07:16:19;99600.86;;;25.77;39.37
77235;BME280;66253;50.526;14.974;2023-07-08T07:18:47;99595.28;;;25.80;38.96
77235;BME280;66253;50.526;14.974;2023-07-08T07:21:16;99595.19;;;25.86;39.16
77235;BME280;66253;50.526;14.974;2023-07-08T07:23:44;99596.64;;;25.95;39.18
77235;BME280;66253;50.526;14.974;2023-07-08T07:26:12;99599.63;;;26.04;39.22
77235;BME280;66253;50.526;14.974;2023-07-08T07:28:41;99595.86;;;26.16;38.87
77235;BME280;66253;50.526;14.974;2023-07-08T07:31:09;99594.36;;;26.29;37.66
77235;BME280;66253;50.526;14.974;2023-07-08T07:33:37;99595.42;;;26.32;36.28
77235;BME280;66253;50.526;14.974;2023-07-08T07:36:06;99596.98;;;26.33;35.29
77235;BME280;66253;50.526;14.974;2023-07-08T07:38:35;99597.75;;;26.31;36.68
77235;BME280;66253;50.526;14.974;2023-07-08T07:41:03;99591.69;;;26.40;36.56
77235;BME280;66253;50.526;14.974;2023-07-08T07:43:31;99589.42;;;26.54;36.33
77235;BME280;66253;50.526;14.974;2023-07-08T07:45:59;99589.70;;;26.65;35.55
77235;BME280;66253;50.526;14.974;2023-07-08T07:48:28;99590.16;;;26.73;36.41
77235;BME280;66253;50.526;14.974;2023-07-08T07:50:56;99586.71;;;26.90;36.41
77235;BME280;66253;50.526;14.974;2023-07-08T07:53:24;99590.19;;;27.08;35.98
77235;BME280;66253;50.526;14.974;2023-07-08T07:55:58;99591.45;;;27.24;35.35
77235;BME280;66253;50.526;14.974;2023-07-08T07:58:27;99592.30;;;27.39;35.13
77235;BME280;66253;50.526;14.974;2023-07-08T08:00:55;99579.79;;;27.50;34.47
77235;BME280;66253;50.526;14.974;2023-07-08T08:03:24;99583.72;;;27.56;34.60
77235;BME280;66253;50.526;14.974;2023-07-08T08:05:52;99587.48;;;27.73;34.32
77235;BME280;66253;50.526;14.974;2023-07-08T08:08:21;99584.09;;;27.88;33.32
77235;BME280;66253;50.526;14.974;2023-07-08T08:10:49;99591.63;;;28.01;33.12
77235;BME280;66253;50.526;14.974;2023-07-08T08:13:18;99590.40;;;28.10;32.63
77235;BME280;66253;50.526;14.974;2023-07-08T08:15:46;99590.36;;;28.16;32.89
77235;BME280;66253;50.526;14.974;2023-07-08T08:18:14;99585.79;;;28.27;32.97
77235;BME280;66253;50.526;14.974;2023-07-08T08:20:42;99585.23;;;28.38;32.05
77235;BME280;66253;50.526;14.974;2023-07-08T08:23:10;99586.85;;;28.47;31.61
77235;BME280;66253;50.526;14.974;2023-07-08T08:25:39;99586.15;;;28.52;31.13
77235;BME280;66253;50.526;14.974;2023-07-08T08:28:07;99587.09;;;28.58;31.14
77235;BME280;66253;50.526;14.974;2023-07-08T08:30:35;99583.17;;;28.67;31.14
77235;BME280;66253;50.526;14.974;2023-07-08T08:33:04;99586.29;;;28.74;31.35
77235;BME280;66253;50.526;14.974;2023-07-08T08:35:32;99583.56;;;28.84;30.82
77235;BME280;66253;50.526;14.974;2023-07-08T08:38:00;99584.23;;;28.95;31.17
77235;BME280;66253;50.526;14.974;2023-07-08T08:40:29;99581.92;;;29.02;29.82
77235;BME280;66253;50.526;14.974;2023-07-08T08:43:01;99582.27;;;28.94;29.66
77235;BME280;66253;50.526;14.974;2023-07-08T08:45:34;99581.88;;;28.90;29.28
77235;BME280;66253;50.526;14.974;2023-07-08T08:48:13;99584.88;;;28.83;29.14
77235;BME280;66253;50.526;14.974;2023-07-08T08:50:49;99587.16;;;28.79;30.13
77235;BME280;66253;50.526;14.974;2023-07-08T08:53:19;99587.65;;;28.88;29.74
77235;BME280;66253;50.526;14.974;2023-07-08T08:55:54;99583.79;;;28.94;30.44
77235;BME280;66253;50.526;14.974;2023-07-08T08:58:30;99581.88;;;29.08;29.94
77235;BME280;66253;50.526;14.974;2023-07-08T09:01:03;99579.98;;;29.15;29.88
77235;BME280;66253;50.526;14.974;2023-07-08T09:03:41;99578.63;;;29.24;29.87
77235;BME280;66253;50.526;14.974;2023-07-08T09:06:15;99577.27;;;29.33;29.89
77235;BME280;66253;50.526;14.974;2023-07-08T09:08:44;99576.77;;;29.43;29.78
77235;BME280;66253;50.526;14.974;2023-07-08T09:11:19;99571.60;;;29.53;29.51
77235;BME280;66253;50.526;14.974;2023-07-08T09:13:50;99571.07;;;29.65;29.82
77235;BME280;66253;50.526;14.974;2023-07-08T09:16:25;99564.91;;;29.77;29.21
77235;BME280;66253;50.526;14.974;2023-07-08T09:18:59;99563.00;;;29.90;28.70
77235;BME280;66253;50.526;14.974;2023-07-08T09:21:33;99561.62;;;29.92;27.96
77235;BME280;66253;50.526;14.974;2023-07-08T09:24:07;99560.05;;;29.87;28.10
77235;BME280;66253;50.526;14.974;2023-07-08T09:26:38;99561.67;;;29.89;28.91
77235;BME280;66253;50.526;14.974;2023-07-08T09:29:11;99559.06;;;29.93;28.35
77235;BME280;66253;50.526;14.974;2023-07-08T09:31:40;99561.63;;;30.04;28.90
77235;BME280;66253;50.526;14.974;2023-07-08T09:34:11;99563.05;;;30.21;28.27
77235;BME280;66253;50.526;14.974;2023-07-08T09:36:43;99558.73;;;30.29;27.41
77235;BME280;66253;50.526;14.974;2023-07-08T09:39:16;99556.21;;;30.39;28.65
77235;BME280;66253;50.526;14.974;2023-07-08T09:41:47;99557.48;;;30.55;27.60
77235;BME280;66253;50.526;14.974;2023-07-08T09:44:20;99552.04;;;30.65;26.70
77235;BME280;66253;50.526;14.974;2023-07-08T09:46:49;99554.61;;;30.67;26.44
77235;BME280;66253;50.526;14.974;2023-07-08T09:49:21;99552.48;;;30.67;26.88
77235;BME280;66253;50.526;14.974;2023-07-08T09:51:51;99557.71;;;30.76;27.31
77235;BME280;66253;50.526;14.974;2023-07-08T09:54:21;99553.30;;;30.86;26.28
77235;BME280;66253;50.526;14.974;2023-07-08T09:56:58;99549.67;;;30.87;25.62
77235;BME280;66253;50.526;14.974;2023-07-08T09:59:32;99545.79;;;30.78;26.16
77235;BME280;66253;50.526;14.974;2023-07-08T10:02:22;99547.30;;;30.81;25.98
77235;BME280;66253;50.526;14.974;2023-07-08T10:04:56;99542.20;;;30.82;26.55
77235;BME280;66253;50.526;14.974;2023-07-08T10:07:25;99541.34;;;30.95;26.37
77235;BME280;66253;50.526;14.974;2023-07-08T10:09:56;99545.59;;;31.10;26.32
77235;BME280;66253;50.526;14.974;2023-07-08T10:12:26;99547.94;;;31.21;24.93
77235;BME280;66253;50.526;14.974;2023-07-08T10:14:56;99549.96;;;31.21;24.72
77235;BME280;66253;50.526;14.974;2023-07-08T10:17:26;99547.08;;;31.27;25.58
77235;BME280;66253;50.526;14.974;2023-07-08T10:19:54;99547.81;;;31.40;25.09
77235;BME280;66253;50.526;14.974;2023-07-08T10:22:33;99538.45;;;31.50;25.12
77235;BME280;66253;50.526;14.974;2023-07-08T10:25:22;99538.33;;;31.63;25.14
77235;BME280;66253;50.526;14.974;2023-07-08T10:27:56;99528.21;;;31.69;24.89
77235;BME280;66253;50.526;14.974;2023-07-08T10:30:26;99522.63;;;31.74;25.25
77235;BME280;66253;50.526;14.974;2023-07-08T10:33:16;99524.61;;;31.76;24.18
77235;BME280;66253;50.526;14.974;2023-07-08T10:35:54;99520.48;;;31.51;23.87
77235;BME280;66253;50.526;14.974;2023-07-08T10:38:39;99519.14;;;31.38;23.81
77235;BME280;66253;50.526;14.974;2023-07-08T10:41:14;99514.39;;;31.25;24.24
77235;BME280;66253;50.526;14.974;2023-07-08T10:43:54;99507.02;;;31.20;24.69
77235;BME280;66253;50.526;14.974;2023-07-08T10:46:38;99504.29;;;31.25;24.43
77235;BME280;66253;50.526;14.974;2023-07-08T10:49:20;99503.04;;;31.33;25.00
77235;BME280;66253;50.526;14.974;2023-07-08T10:51:58;99503.35;;;31.47;24.48
77235;BME280;66253;50.526;14.974;2023-07-08T10:54:48;99502.05;;;31.59;25.12
77235;BME280;66253;50.526;14.974;2023-07-08T10:57:41;99501.00;;;31.78;24.33
77235;BME280;66253;50.526;14.974;2023-07-08T11:00:32;99500.92;;;31.82;24.29
77235;BME280;66253;50.526;14.974;2023-07-08T11:03:29;99497.41;;;31.87;24.74
77235;BME280;66253;50.526;14.974;2023-07-08T11:06:08;99491.93;;;31.81;24.17
77235;BME280;66253;50.526;14.974;2023-07-08T11:08:41;99487.14;;;31.74;23.88
77235;BME280;66253;50.526;14.974;2023-07-08T11:11:22;99483.50;;;31.66;24.16
77235;BME280;66253;50.526;14.974;2023-07-08T11:13:58;99485.15;;;31.73;24.43
77235;BME280;66253;50.526;14.974;2023-07-08T11:16:35;99479.48;;;31.81;24.40
77235;BME280;66253;50.526;14.974;2023-07-08T11:19:07;99484.66;;;31.81;23.62
77235;BME280;66253;50.526;14.974;2023-07-08T11:21:41;99478.20;;;31.86;24.49
77235;BME280;66253;50.526;14.974;2023-07-08T11:24:18;99477.14;;;32.04;25.02
77235;BME280;66253;50.526;14.974;2023-07-08T11:26:52;99474.39;;;32.25;24.64
77235;BME280;66253;50.526;14.974;2023-07-08T11:29:24;99473.74;;;32.41;24.42
77235;BME280;66253;50.526;14.974;2023-07-08T11:31:54;99472.58;;;32.55;23.64
77235;BME280;66253;50.526;14.974;2023-07-08T11:34:23;99477.20;;;32.56;22.34
77235;BME280;66253;50.526;14.974;2023-07-08T11:36:52;99472.36;;;32.39;22.53
77235;BME280;66253;50.526;14.974;2023-07-08T11:39:33;99471.91;;;32.36;23.11
77235;BME280;66253;50.526;14.974;2023-07-08T11:42:14;99468.02;;;32.38;22.37
77235;BME280;66253;50.526;14.974;2023-07-08T11:44:46;99465.55;;;32.35;22.59
77235;BME280;66253;50.526;14.974;2023-07-08T11:47:18;99459.31;;;32.39;23.45
77235;BME280;66253;50.526;14.974;2023-07-08T11:49:48;99460.52;;;32.53;23.22
77235;BME280;66253;50.526;14.974;2023-07-08T11:52:19;99459.27;;;32.61;22.75
77235;BME280;66253;50.526;14.974;2023-07-08T11:54:54;99457.30;;;32.59;22.01
77235;BME280;66253;50.526;14.974;2023-07-08T11:57:28;99458.48;;;32.58;22.61
77235;BME280;66253;50.526;14.974;2023-07-08T12:00:15;99456.00;;;32.59;22.66
77235;BME280;66253;50.526;14.974;2023-07-08T12:02:53;99451.31;;;32.51;22.49
77235;BME280;66253;50.526;14.974;2023-07-08T12:05:33;99452.02;;;32.48;22.91
77235;BME280;66253;50.526;14.974;2023-07-08T12:08:03;99450.79;;;32.47;22.69
77235;BME280;66253;50.526;14.974;2023-07-08T12:10:41;99445.30;;;32.43;22.64
77235;BME280;66253;50.526;14.974;2023-07-08T12:13:15;99445.47;;;32.40;22.88
77235;BME280;66253;50.526;14.974;2023-07-08T12:15:44;99441.30;;;32.42;23.41
77235;BME280;66253;50.526;14.974;2023-07-08T12:18:13;99442.63;;;32.51;23.52
77235;BME280;66253;50.526;14.974;2023-07-08T12:20:43;99441.44;;;32.55;22.69
77235;BME280;66253;50.526;14.974;2023-07-08T12:23:13;99444.34;;;32.44;22.16
77235;BME280;66253;50.526;14.974;2023-07-08T12:25:41;99441.84;;;32.40;22.73
77235;BME280;66253;50.526;14.974;2023-07-08T12:28:11;99443.73;;;32.50;23.72
77235;BME280;66253;50.526;14.974;2023-07-08T12:30:41;99438.01;;;32.65;23.39
77235;BME280;66253;50.526;14.974;2023-07-08T12:33:14;99437.05;;;32.71;22.27
77235;BME280;66253;50.526;14.974;2023-07-08T12:35:45;99429.11;;;32.74;21.99
77235;BME280;66253;50.526;14.974;2023-07-08T12:38:20;99433.34;;;32.63;21.01
77235;BME280;66253;50.526;14.974;2023-07-08T12:40:51;99431.34;;;32.60;22.32
77235;BME280;66253;50.526;14.974;2023-07-08T12:43:19;99429.45;;;32.57;21.68
77235;BME280;66253;50.526;14.974;2023-07-08T12:45:48;99428.71;;;32.44;21.45
77235;BME280;66253;50.526;14.974;2023-07-08T12:48:16;99421.95;;;32.38;21.92
77235;BME280;66253;50.526;14.974;2023-07-08T12:50:44;99419.37;;;32.38;21.80
77235;BME280;66253;50.526;14.974;2023-07-08T12:53:12;99416.86;;;32.35;21.98
77235;BME280;66253;50.526;14.974;2023-07-08T12:55:43;99415.00;;;32.39;22.51
77235;BME280;66253;50.526;14.974;2023-07-08T12:58:17;99419.57;;;32.48;22.57
77235;BME280;66253;50.526;14.974;2023-07-08T13:00:47;99417.60;;;32.58;22.54
77235;BME280;66253;50.526;14.974;2023-07-08T13:03:18;99417.85;;;32.67;22.63
77235;BME280;66253;50.526;14.974;2023-07-08T13:05:47;99413.77;;;32.77;22.50
77235;BME280;66253;50.526;14.974;2023-07-08T13:08:22;99411.58;;;32.81;21.21